LiveATC.Net - Listen to live air traffic control over the Internet!


ICAO: ENGM  IATA: OSL   Airport: Oslo Gardermoen Airport
City: Oslo
Country: Norway   Continent: Europe
ENGM METAR Weather: ENGM 151850Z 09003KT CAVOK 17/06 Q1010 TEMPO SHRA
ENGM Flight Activity (FlightAware)
ENGM Webcam:  (Airport Webcams) 

ENGM Approach
Feed Status: UP   Listeners: 0
Listen in your browser - HTML5 player (in browser, HTML5)
Click here to listen with your own player (launches your MP3 player)
ENGM Approach Audio Archives
FacilityFrequency
Oslo Approach118.475
Oslo Approach120.450

ENGM Tower
Feed Status: DOWN
Last heard on: 2019-07-13 07:31:05 (2 days 11 hours 30 minutes ago)
ENGM Tower Audio Archives
FacilityFrequency
Oslo Tower (East)120.100
Oslo Tower (West)118.300

NOTICE

Unauthorized use prohibited. See LiveATC.net Terms of Service


Find LiveATC Audio Streams


Airport/ARTCC Code

Frequency Search
(e.g., 124.400, 128.75)
Site-wide search
 


Browse LiveATC Feeds
Top 50 LiveATC Feeds
LiveATC Feed Map
Bad Weather Areas

LiveATC FAQ
Offer LiveATC feed
Contact LiveATC.net
Press Inquiries

LiveATC on iPhone
LiveATC on Android

Windows Phone
Windows 8/10

LiveATC Mobile
(Mobile browser)

ATC Audio Archives
Interesting Recordings

LiveATC Forums


Home Page
About LiveATC.net
Make a Donation
Terms of Use
Privacy Policy

Canadian Air Freqs

AIRMETs/SIGMETs

FAA Airport Status
Nat'l Airspace Status
Arrival Demand Charts


Server Software By:
Icecast.org
Liquidsoap